Main page

London-Gatwick, England

Gatwick Airport

latitude: 51-09N, longitude: 000-11W, elevation: 62 m

Current weather observation

The report was made 38 minutes ago, at 09:50 UTC
Wind 3 kt from variable directions
Temperature 14°C
Humidity 72%
Pressure 1023 hPa
Visibility 10 km or more
Few clouds at a height of 2000 ft

METAR: EGKK 090950Z VRB03KT 9999 FEW020 14/09 Q1023

Time: 11:28 (10:28 UTC)


The report was made 5 hours and 25 minutes ago, at 05:03 UTC
Forecast valid from 09 at 06 UTC to 10 at 12 UTC
Wind 4 kt from the East/Northeast
Visibility 10 km or more
Few clouds at a height of 4000 ft
from 09 at 06 UTC to 09 at 11 UTC
Visibility: 5000 m
mist, Shallow fog
Probability 30%
from 09 at 06 UTC to 09 at 09 UTC
Visibility: 0300 m
Probability 30%
from 10 at 02 UTC to 10 at 08 UTC
Visibility: 8000 m

TAF: EGKK 090503Z 0906/1012 07004KT 9999 FEW040 TEMPO 0906/0911 5000 BR MIFG PROB30 0906/0909 0300 FG VV/// PROB30 1002/1008 8000


Weather observations and forecasts of more than 4000 airports (METAR and TAF reports).

The available stations are represented by yellow and red dots on the map.

Hover mouse over dot to see the name of the station.

Then click to see weather observations and forecasts.

To change the map : click on the green buttons with a black cross to zoom in, on the green button with a dash to zoom out, or on the green arrows for adjacent maps.